Terminal Aerodrome Forecast
Issued by NWS St Louis, MO

Home | Current Version | Previous Version | Text Only | Print | Product List | Glossary On
Versions: 1 2 3 4 5 6 7 8 9 10 11 12 13 14 15 16 17 18
120
FTUS43 KLSX 111720
TAFCOU
TAF
KCOU 111720Z 1118/1218 06009KT P6SM BKN040
     FM112200 08006KT P6SM SCT020 OVC100
     FM120200 08007KT 3SM -SN BR SCT015 OVC035
     FM120900 VRB04KT P6SM SCT015 OVC025
     FM121600 33010KT P6SM SCT025=

USA.gov is the U.S. government's official web portal to all federal, state and local government web resources and services.